SCQW weather

Quemchi Airport
Quemchi, Los Lagos Region, Chile

Public forecast

Using degrees Celsius for public forecast. Weather courtesy of forecast.io.

METAR (pilot weather report)

Closest report is Mocopulli Airport, 14.3 nm (26.5 km) SW. Retrieved 2019/04/24 22:00 UTC (2 minutes ago):

SCPQ 242200Z AUTO 16005KT 120V190 //// R35/P2000N NCD 12/07 Q1018

TAF (pilot weather forecast)

Forecast is more than 6 hours old.

Closest forecast is Mocopulli Airport, 14.3 nm (26.5 km) SW. Retrieved 2019/04/24 12:00 UTC (10 hours ago):

TAF SCPQ 241105Z 2412/2424 20007KT CAVOK TN02/2412Z TX16/2420Z BECMG 2420/2422 VRB02KT